sensor_id;sensor_type;location;lat;lon;timestamp;P1;durP1;ratioP1;P2;durP2;ratioP2
77287;SDS011;66345;42.694;23.346;2023-06-10T00:02:19;9.65;;;5.60;;
77287;SDS011;66345;42.694;23.346;2023-06-10T00:04:45;10.30;;;5.40;;
77287;SDS011;66345;42.694;23.346;2023-06-10T00:07:10;8.13;;;5.32;;
77287;SDS011;66345;42.694;23.346;2023-06-10T00:09:36;10.57;;;5.77;;
77287;SDS011;66345;42.694;23.346;2023-06-10T00:12:03;9.75;;;6.05;;
77287;SDS011;66345;42.694;23.346;2023-06-10T00:14:30;9.07;;;5.30;;
77287;SDS011;66345;42.694;23.346;2023-06-10T00:16:55;9.68;;;5.60;;
77287;SDS011;66345;42.694;23.346;2023-06-10T00:19:22;8.77;;;5.90;;
77287;SDS011;66345;42.694;23.346;2023-06-10T00:21:50;10.35;;;6.68;;
77287;SDS011;66345;42.694;23.346;2023-06-10T00:24:17;10.57;;;5.85;;
77287;SDS011;66345;42.694;23.346;2023-06-10T00:26:43;9.97;;;5.93;;
77287;SDS011;66345;42.694;23.346;2023-06-10T00:29:08;9.40;;;5.30;;
77287;SDS011;66345;42.694;23.346;2023-06-10T00:31:34;11.07;;;5.87;;
77287;SDS011;66345;42.694;23.346;2023-06-10T00:34:00;9.18;;;5.70;;
77287;SDS011;66345;42.694;23.346;2023-06-10T00:36:27;11.15;;;5.70;;
77287;SDS011;66345;42.694;23.346;2023-06-10T00:38:52;8.53;;;5.63;;
77287;SDS011;66345;42.694;23.346;2023-06-10T00:41:18;9.43;;;5.40;;
77287;SDS011;66345;42.694;23.346;2023-06-10T00:43:44;9.13;;;5.50;;
77287;SDS011;66345;42.694;23.346;2023-06-10T00:46:09;9.37;;;5.40;;
77287;SDS011;66345;42.694;23.346;2023-06-10T00:48:36;11.15;;;6.05;;
77287;SDS011;66345;42.694;23.346;2023-06-10T00:51:03;11.40;;;5.80;;
77287;SDS011;66345;42.694;23.346;2023-06-10T00:53:30;10.45;;;5.60;;
77287;SDS011;66345;42.694;23.346;2023-06-10T00:55:56;7.70;;;5.50;;
77287;SDS011;66345;42.694;23.346;2023-06-10T00:58:22;7.93;;;5.40;;
77287;SDS011;66345;42.694;23.346;2023-06-10T01:00:49;7.80;;;5.68;;
77287;SDS011;66345;42.694;23.346;2023-06-10T01:03:15;8.87;;;5.60;;
77287;SDS011;66345;42.694;23.346;2023-06-10T01:05:42;9.05;;;5.65;;
77287;SDS011;66345;42.694;23.346;2023-06-10T01:10:53;10.43;;;6.47;;
77287;SDS011;66345;42.694;23.346;2023-06-10T01:13:23;11.95;;;6.38;;
77287;SDS011;66345;42.694;23.346;2023-06-10T01:15:53;11.25;;;6.18;;
77287;SDS011;66345;42.694;23.346;2023-06-10T01:18:19;9.52;;;6.38;;
77287;SDS011;66345;42.694;23.346;2023-06-10T01:20:46;10.82;;;5.88;;
77287;SDS011;66345;42.694;23.346;2023-06-10T01:23:14;11.57;;;5.78;;
77287;SDS011;66345;42.694;23.346;2023-06-10T01:25:41;10.80;;;6.22;;
77287;SDS011;66345;42.694;23.346;2023-06-10T01:28:25;11.50;;;6.22;;
77287;SDS011;66345;42.694;23.346;2023-06-10T01:31:07;10.55;;;5.80;;
77287;SDS011;66345;42.694;23.346;2023-06-10T01:33:41;10.30;;;5.93;;
77287;SDS011;66345;42.694;23.346;2023-06-10T01:36:10;8.48;;;5.45;;
77287;SDS011;66345;42.694;23.346;2023-06-10T01:38:39;8.38;;;5.38;;
77287;SDS011;66345;42.694;23.346;2023-06-10T01:41:07;11.10;;;5.60;;
77287;SDS011;66345;42.694;23.346;2023-06-10T01:43:34;9.95;;;5.65;;
77287;SDS011;66345;42.694;23.346;2023-06-10T01:46:00;9.40;;;5.78;;
77287;SDS011;66345;42.694;23.346;2023-06-10T01:48:26;10.95;;;5.72;;
77287;SDS011;66345;42.694;23.346;2023-06-10T01:50:52;9.40;;;5.47;;
77287;SDS011;66345;42.694;23.346;2023-06-10T01:53:17;9.40;;;6.20;;
77287;SDS011;66345;42.694;23.346;2023-06-10T01:55:42;10.73;;;7.50;;
77287;SDS011;66345;42.694;23.346;2023-06-10T01:58:08;9.23;;;6.43;;
77287;SDS011;66345;42.694;23.346;2023-06-10T02:00:33;10.77;;;6.03;;
77287;SDS011;66345;42.694;23.346;2023-06-10T02:02:59;11.40;;;6.50;;
77287;SDS011;66345;42.694;23.346;2023-06-10T02:05:24;11.33;;;6.33;;
77287;SDS011;66345;42.694;23.346;2023-06-10T02:07:50;10.77;;;6.70;;
77287;SDS011;66345;42.694;23.346;2023-06-10T02:10:16;14.60;;;7.53;;
77287;SDS011;66345;42.694;23.346;2023-06-10T02:12:41;13.83;;;7.63;;
77287;SDS011;66345;42.694;23.346;2023-06-10T02:15:06;11.67;;;7.77;;
77287;SDS011;66345;42.694;23.346;2023-06-10T02:17:32;11.25;;;7.22;;
77287;SDS011;66345;42.694;23.346;2023-06-10T02:19:58;9.77;;;6.68;;
77287;SDS011;66345;42.694;23.346;2023-06-10T02:22:24;10.60;;;7.18;;
77287;SDS011;66345;42.694;23.346;2023-06-10T02:24:50;13.63;;;7.38;;
77287;SDS011;66345;42.694;23.346;2023-06-10T02:27:16;14.13;;;7.37;;
77287;SDS011;66345;42.694;23.346;2023-06-10T02:29:42;10.65;;;6.72;;
77287;SDS011;66345;42.694;23.346;2023-06-10T02:32:08;12.33;;;6.87;;
77287;SDS011;66345;42.694;23.346;2023-06-10T02:34:34;14.43;;;6.72;;
77287;SDS011;66345;42.694;23.346;2023-06-10T02:36:59;9.50;;;6.30;;
77287;SDS011;66345;42.694;23.346;2023-06-10T02:39:25;12.07;;;6.40;;
77287;SDS011;66345;42.694;23.346;2023-06-10T02:41:51;10.60;;;6.30;;
77287;SDS011;66345;42.694;23.346;2023-06-10T02:44:17;10.15;;;6.32;;
77287;SDS011;66345;42.694;23.346;2023-06-10T02:46:43;8.55;;;5.85;;
77287;SDS011;66345;42.694;23.346;2023-06-10T02:49:08;10.40;;;5.95;;
77287;SDS011;66345;42.694;23.346;2023-06-10T02:51:34;9.90;;;5.90;;
77287;SDS011;66345;42.694;23.346;2023-06-10T02:54:00;10.57;;;6.18;;
77287;SDS011;66345;42.694;23.346;2023-06-10T02:56:26;11.47;;;6.27;;
77287;SDS011;66345;42.694;23.346;2023-06-10T02:58:52;12.30;;;6.32;;
77287;SDS011;66345;42.694;23.346;2023-06-10T03:01:17;10.60;;;5.53;;
77287;SDS011;66345;42.694;23.346;2023-06-10T03:03:44;9.80;;;5.88;;
77287;SDS011;66345;42.694;23.346;2023-06-10T03:06:11;9.43;;;6.05;;
77287;SDS011;66345;42.694;23.346;2023-06-10T03:08:38;7.72;;;5.60;;
77287;SDS011;66345;42.694;23.346;2023-06-10T03:11:04;9.43;;;6.03;;
77287;SDS011;66345;42.694;23.346;2023-06-10T03:13:29;11.57;;;7.20;;
77287;SDS011;66345;42.694;23.346;2023-06-10T03:15:55;9.70;;;6.03;;
77287;SDS011;66345;42.694;23.346;2023-06-10T03:18:20;13.20;;;6.50;;
77287;SDS011;66345;42.694;23.346;2023-06-10T03:20:48;10.10;;;6.50;;
77287;SDS011;66345;42.694;23.346;2023-06-10T03:23:13;11.77;;;7.10;;
77287;SDS011;66345;42.694;23.346;2023-06-10T03:25:39;10.55;;;6.85;;
77287;SDS011;66345;42.694;23.346;2023-06-10T03:28:04;11.97;;;7.33;;
77287;SDS011;66345;42.694;23.346;2023-06-10T03:30:29;10.47;;;7.17;;
77287;SDS011;66345;42.694;23.346;2023-06-10T03:32:55;12.83;;;7.00;;
77287;SDS011;66345;42.694;23.346;2023-06-10T03:35:20;10.67;;;7.10;;
77287;SDS011;66345;42.694;23.346;2023-06-10T03:37:46;14.73;;;6.68;;
77287;SDS011;66345;42.694;23.346;2023-06-10T03:40:11;10.00;;;5.70;;
77287;SDS011;66345;42.694;23.346;2023-06-10T03:42:37;7.23;;;5.20;;
77287;SDS011;66345;42.694;23.346;2023-06-10T03:45:02;8.77;;;4.80;;
77287;SDS011;66345;42.694;23.346;2023-06-10T03:47:35;8.60;;;5.25;;
77287;SDS011;66345;42.694;23.346;2023-06-10T03:50:05;7.93;;;4.78;;
77287;SDS011;66345;42.694;23.346;2023-06-10T03:52:31;8.55;;;5.18;;
77287;SDS011;66345;42.694;23.346;2023-06-10T03:54:56;7.90;;;5.30;;
77287;SDS011;66345;42.694;23.346;2023-06-10T03:57:22;8.90;;;5.00;;
77287;SDS011;66345;42.694;23.346;2023-06-10T03:59:47;9.67;;;5.00;;
77287;SDS011;66345;42.694;23.346;2023-06-10T04:02:13;8.25;;;4.78;;
77287;SDS011;66345;42.694;23.346;2023-06-10T04:04:38;7.90;;;4.87;;
77287;SDS011;66345;42.694;23.346;2023-06-10T04:07:04;7.63;;;4.77;;
77287;SDS011;66345;42.694;23.346;2023-06-10T04:09:30;7.93;;;4.95;;
77287;SDS011;66345;42.694;23.346;2023-06-10T04:11:56;9.82;;;4.90;;
77287;SDS011;66345;42.694;23.346;2023-06-10T04:14:21;9.23;;;4.90;;
77287;SDS011;66345;42.694;23.346;2023-06-10T04:16:47;8.07;;;5.00;;
77287;SDS011;66345;42.694;23.346;2023-06-10T04:19:12;8.68;;;4.72;;
77287;SDS011;66345;42.694;23.346;2023-06-10T04:21:37;7.93;;;4.68;;
77287;SDS011;66345;42.694;23.346;2023-06-10T04:24:03;9.47;;;5.00;;
77287;SDS011;66345;42.694;23.346;2023-06-10T04:26:29;8.05;;;4.60;;
77287;SDS011;66345;42.694;23.346;2023-06-10T04:28:54;7.20;;;4.80;;
77287;SDS011;66345;42.694;23.346;2023-06-10T04:31:20;9.10;;;5.23;;
77287;SDS011;66345;42.694;23.346;2023-06-10T04:33:45;10.00;;;5.10;;
77287;SDS011;66345;42.694;23.346;2023-06-10T04:36:11;12.40;;;5.07;;
77287;SDS011;66345;42.694;23.346;2023-06-10T04:38:36;8.07;;;5.00;;
77287;SDS011;66345;42.694;23.346;2023-06-10T04:41:02;10.23;;;4.80;;
77287;SDS011;66345;42.694;23.346;2023-06-10T04:43:29;7.80;;;4.80;;
77287;SDS011;66345;42.694;23.346;2023-06-10T04:45:55;7.57;;;4.57;;
77287;SDS011;66345;42.694;23.346;2023-06-10T04:48:21;8.97;;;4.87;;
77287;SDS011;66345;42.694;23.346;2023-06-10T04:50:46;8.50;;;5.20;;
77287;SDS011;66345;42.694;23.346;2023-06-10T04:53:11;10.13;;;5.00;;
77287;SDS011;66345;42.694;23.346;2023-06-10T04:55:37;8.37;;;5.03;;
77287;SDS011;66345;42.694;23.346;2023-06-10T04:58:02;9.43;;;4.85;;
77287;SDS011;66345;42.694;23.346;2023-06-10T05:00:28;9.00;;;5.17;;
77287;SDS011;66345;42.694;23.346;2023-06-10T05:02:53;9.77;;;6.30;;
77287;SDS011;66345;42.694;23.346;2023-06-10T05:05:19;9.53;;;5.63;;
77287;SDS011;66345;42.694;23.346;2023-06-10T05:07:44;8.40;;;5.45;;
77287;SDS011;66345;42.694;23.346;2023-06-10T05:10:10;8.80;;;5.40;;
77287;SDS011;66345;42.694;23.346;2023-06-10T05:12:37;8.57;;;5.25;;
77287;SDS011;66345;42.694;23.346;2023-06-10T05:15:04;9.52;;;5.63;;
77287;SDS011;66345;42.694;23.346;2023-06-10T05:17:30;9.07;;;4.93;;
77287;SDS011;66345;42.694;23.346;2023-06-10T05:19:56;11.32;;;5.38;;
77287;SDS011;66345;42.694;23.346;2023-06-10T05:22:21;8.87;;;5.40;;
77287;SDS011;66345;42.694;23.346;2023-06-10T05:24:49;11.23;;;5.82;;
77287;SDS011;66345;42.694;23.346;2023-06-10T05:27:14;11.33;;;5.83;;
77287;SDS011;66345;42.694;23.346;2023-06-10T05:29:40;10.87;;;6.03;;
77287;SDS011;66345;42.694;23.346;2023-06-10T05:32:05;7.82;;;5.28;;
77287;SDS011;66345;42.694;23.346;2023-06-10T05:34:31;9.00;;;5.80;;
77287;SDS011;66345;42.694;23.346;2023-06-10T05:36:57;10.18;;;6.53;;
77287;SDS011;66345;42.694;23.346;2023-06-10T05:39:22;8.73;;;6.10;;
77287;SDS011;66345;42.694;23.346;2023-06-10T05:41:48;10.00;;;6.33;;
77287;SDS011;66345;42.694;23.346;2023-06-10T05:44:13;13.93;;;6.78;;
77287;SDS011;66345;42.694;23.346;2023-06-10T05:46:39;12.20;;;7.17;;
77287;SDS011;66345;42.694;23.346;2023-06-10T05:49:04;10.40;;;7.10;;
77287;SDS011;66345;42.694;23.346;2023-06-10T05:51:29;11.43;;;6.67;;
77287;SDS011;66345;42.694;23.346;2023-06-10T05:53:55;11.50;;;6.63;;
77287;SDS011;66345;42.694;23.346;2023-06-10T05:56:20;10.30;;;6.87;;
77287;SDS011;66345;42.694;23.346;2023-06-10T05:58:49;10.90;;;6.88;;
77287;SDS011;66345;42.694;23.346;2023-06-10T06:01:14;10.80;;;6.57;;
77287;SDS011;66345;42.694;23.346;2023-06-10T06:03:40;10.27;;;6.77;;
77287;SDS011;66345;42.694;23.346;2023-06-10T06:06:06;10.60;;;6.27;;
77287;SDS011;66345;42.694;23.346;2023-06-10T06:08:31;11.03;;;6.13;;
77287;SDS011;66345;42.694;23.346;2023-06-10T06:10:57;10.67;;;6.10;;
77287;SDS011;66345;42.694;23.346;2023-06-10T06:13:22;10.03;;;6.50;;
77287;SDS011;66345;42.694;23.346;2023-06-10T06:15:48;9.13;;;5.97;;
77287;SDS011;66345;42.694;23.346;2023-06-10T06:18:13;12.90;;;6.20;;
77287;SDS011;66345;42.694;23.346;2023-06-10T06:20:40;9.87;;;5.80;;
77287;SDS011;66345;42.694;23.346;2023-06-10T06:23:05;9.88;;;5.45;;
77287;SDS011;66345;42.694;23.346;2023-06-10T06:25:31;9.20;;;6.53;;
77287;SDS011;66345;42.694;23.346;2023-06-10T06:27:56;8.97;;;5.80;;
77287;SDS011;66345;42.694;23.346;2023-06-10T06:30:22;9.23;;;6.05;;
77287;SDS011;66345;42.694;23.346;2023-06-10T06:32:47;9.33;;;5.70;;
77287;SDS011;66345;42.694;23.346;2023-06-10T06:35:12;11.27;;;5.80;;
77287;SDS011;66345;42.694;23.346;2023-06-10T06:37:38;12.63;;;5.93;;
77287;SDS011;66345;42.694;23.346;2023-06-10T06:40:03;9.93;;;6.10;;
77287;SDS011;66345;42.694;23.346;2023-06-10T06:42:30;8.90;;;5.77;;
77287;SDS011;66345;42.694;23.346;2023-06-10T06:44:55;10.10;;;6.10;;
77287;SDS011;66345;42.694;23.346;2023-06-10T06:47:21;8.87;;;5.90;;
77287;SDS011;66345;42.694;23.346;2023-06-10T06:49:46;9.83;;;5.47;;
77287;SDS011;66345;42.694;23.346;2023-06-10T06:52:12;8.32;;;5.13;;
77287;SDS011;66345;42.694;23.346;2023-06-10T06:54:38;7.93;;;4.68;;
77287;SDS011;66345;42.694;23.346;2023-06-10T06:57:03;6.83;;;4.80;;
77287;SDS011;66345;42.694;23.346;2023-06-10T06:59:30;8.48;;;5.07;;
77287;SDS011;66345;42.694;23.346;2023-06-10T07:01:56;8.87;;;4.60;;
77287;SDS011;66345;42.694;23.346;2023-06-10T07:04:21;7.70;;;4.90;;
77287;SDS011;66345;42.694;23.346;2023-06-10T07:06:47;8.85;;;5.03;;
77287;SDS011;66345;42.694;23.346;2023-06-10T07:09:13;7.83;;;4.93;;
77287;SDS011;66345;42.694;23.346;2023-06-10T07:11:38;8.23;;;4.60;;
77287;SDS011;66345;42.694;23.346;2023-06-10T07:14:04;8.70;;;5.20;;
77287;SDS011;66345;42.694;23.346;2023-06-10T07:16:29;7.20;;;4.90;;
77287;SDS011;66345;42.694;23.346;2023-06-10T07:18:55;6.63;;;4.05;;
77287;SDS011;66345;42.694;23.346;2023-06-10T07:21:20;8.50;;;4.67;;
77287;SDS011;66345;42.694;23.346;2023-06-10T07:23:47;8.13;;;4.95;;
77287;SDS011;66345;42.694;23.346;2023-06-10T07:26:13;11.60;;;4.80;;
77287;SDS011;66345;42.694;23.346;2023-06-10T07:28:41;8.23;;;4.30;;
77287;SDS011;66345;42.694;23.346;2023-06-10T07:31:07;6.03;;;3.95;;
77287;SDS011;66345;42.694;23.346;2023-06-10T07:33:33;6.03;;;3.65;;
77287;SDS011;66345;42.694;23.346;2023-06-10T07:35:59;12.73;;;4.05;;
77287;SDS011;66345;42.694;23.346;2023-06-10T07:38:27;6.37;;;2.70;;
77287;SDS011;66345;42.694;23.346;2023-06-10T07:40:53;5.82;;;3.35;;
77287;SDS011;66345;42.694;23.346;2023-06-10T07:43:18;5.87;;;2.90;;
77287;SDS011;66345;42.694;23.346;2023-06-10T07:45:44;7.63;;;3.57;;
77287;SDS011;66345;42.694;23.346;2023-06-10T07:48:09;5.75;;;3.20;;
77287;SDS011;66345;42.694;23.346;2023-06-10T07:50:36;7.30;;;3.42;;
77287;SDS011;66345;42.694;23.346;2023-06-10T07:53:01;6.87;;;3.07;;
77287;SDS011;66345;42.694;23.346;2023-06-10T07:55:27;5.22;;;3.22;;
77287;SDS011;66345;42.694;23.346;2023-06-10T07:57:53;7.20;;;3.50;;
77287;SDS011;66345;42.694;23.346;2023-06-10T08:00:19;6.85;;;3.83;;
77287;SDS011;66345;42.694;23.346;2023-06-10T08:02:45;6.43;;;3.20;;
77287;SDS011;66345;42.694;23.346;2023-06-10T08:05:11;5.90;;;3.90;;
77287;SDS011;66345;42.694;23.346;2023-06-10T08:07:37;5.63;;;3.93;;
77287;SDS011;66345;42.694;23.346;2023-06-10T08:10:03;5.95;;;3.70;;
77287;SDS011;66345;42.694;23.346;2023-06-10T08:12:29;6.33;;;4.07;;
77287;SDS011;66345;42.694;23.346;2023-06-10T08:14:54;5.60;;;3.95;;
77287;SDS011;66345;42.694;23.346;2023-06-10T08:17:20;5.80;;;3.63;;
77287;SDS011;66345;42.694;23.346;2023-06-10T08:19:46;6.13;;;4.35;;
77287;SDS011;66345;42.694;23.346;2023-06-10T08:22:11;5.87;;;4.20;;
77287;SDS011;66345;42.694;23.346;2023-06-10T08:24:37;6.03;;;4.40;;
77287;SDS011;66345;42.694;23.346;2023-06-10T08:27:02;7.50;;;4.30;;
77287;SDS011;66345;42.694;23.346;2023-06-10T08:29:28;4.60;;;3.40;;
77287;SDS011;66345;42.694;23.346;2023-06-10T08:31:55;6.00;;;3.40;;
77287;SDS011;66345;42.694;23.346;2023-06-10T08:34:20;7.22;;;3.22;;
77287;SDS011;66345;42.694;23.346;2023-06-10T08:36:45;5.97;;;3.43;;
77287;SDS011;66345;42.694;23.346;2023-06-10T08:39:11;6.33;;;3.90;;
77287;SDS011;66345;42.694;23.346;2023-06-10T08:41:37;6.63;;;3.57;;
77287;SDS011;66345;42.694;23.346;2023-06-10T08:46:40;8.48;;;4.20;;
77287;SDS011;66345;42.694;23.346;2023-06-10T08:49:10;6.45;;;4.32;;
77287;SDS011;66345;42.694;23.346;2023-06-10T08:51:39;6.65;;;4.35;;
77287;SDS011;66345;42.694;23.346;2023-06-10T08:54:11;6.65;;;4.90;;
77287;SDS011;66345;42.694;23.346;2023-06-10T08:56:44;5.10;;;3.70;;
77287;SDS011;66345;42.694;23.346;2023-06-10T08:59:13;5.18;;;3.88;;
77287;SDS011;66345;42.694;23.346;2023-06-10T09:01:39;5.60;;;4.33;;
77287;SDS011;66345;42.694;23.346;2023-06-10T09:04:05;5.87;;;4.20;;
77287;SDS011;66345;42.694;23.346;2023-06-10T09:06:32;5.45;;;3.70;;
77287;SDS011;66345;42.694;23.346;2023-06-10T09:08:59;6.75;;;3.60;;
77287;SDS011;66345;42.694;23.346;2023-06-10T09:11:25;5.00;;;3.33;;
77287;SDS011;66345;42.694;23.346;2023-06-10T09:13:51;5.97;;;3.83;;
77287;SDS011;66345;42.694;23.346;2023-06-10T09:16:17;6.15;;;3.70;;
77287;SDS011;66345;42.694;23.346;2023-06-10T09:18:42;5.23;;;3.60;;
77287;SDS011;66345;42.694;23.346;2023-06-10T09:21:08;4.70;;;3.50;;
77287;SDS011;66345;42.694;23.346;2023-06-10T09:23:34;6.32;;;3.55;;
77287;SDS011;66345;42.694;23.346;2023-06-10T09:26:00;5.87;;;3.40;;
77287;SDS011;66345;42.694;23.346;2023-06-10T09:28:25;4.88;;;3.10;;
77287;SDS011;66345;42.694;23.346;2023-06-10T09:31:01;4.30;;;3.13;;
77287;SDS011;66345;42.694;23.346;2023-06-10T09:33:30;5.05;;;3.28;;
77287;SDS011;66345;42.694;23.346;2023-06-10T09:35:56;5.47;;;3.53;;
77287;SDS011;66345;42.694;23.346;2023-06-10T09:38:29;5.63;;;3.50;;
77287;SDS011;66345;42.694;23.346;2023-06-10T09:40:55;4.60;;;3.53;;
77287;SDS011;66345;42.694;23.346;2023-06-10T09:43:21;4.27;;;3.17;;
77287;SDS011;66345;42.694;23.346;2023-06-10T09:45:48;4.60;;;3.47;;
77287;SDS011;66345;42.694;23.346;2023-06-10T09:48:14;4.85;;;3.35;;
77287;SDS011;66345;42.694;23.346;2023-06-10T09:50:43;5.30;;;3.80;;
77287;SDS011;66345;42.694;23.346;2023-06-10T09:53:10;4.90;;;4.00;;
77287;SDS011;66345;42.694;23.346;2023-06-10T09:55:39;4.53;;;3.90;;
77287;SDS011;66345;42.694;23.346;2023-06-10T09:58:05;4.72;;;3.30;;
77287;SDS011;66345;42.694;23.346;2023-06-10T10:00:31;5.57;;;3.40;;
77287;SDS011;66345;42.694;23.346;2023-06-10T10:02:58;6.38;;;3.90;;
77287;SDS011;66345;42.694;23.346;2023-06-10T10:05:24;8.23;;;3.97;;
77287;SDS011;66345;42.694;23.346;2023-06-10T10:07:50;6.60;;;3.97;;
77287;SDS011;66345;42.694;23.346;2023-06-10T10:10:17;8.00;;;3.60;;
77287;SDS011;66345;42.694;23.346;2023-06-10T10:12:45;5.63;;;3.60;;
77287;SDS011;66345;42.694;23.346;2023-06-10T10:15:13;5.35;;;4.22;;
77287;SDS011;66345;42.694;23.346;2023-06-10T10:17:43;5.22;;;3.40;;
77287;SDS011;66345;42.694;23.346;2023-06-10T10:20:11;4.60;;;3.30;;
77287;SDS011;66345;42.694;23.346;2023-06-10T10:22:40;4.57;;;3.60;;
77287;SDS011;66345;42.694;23.346;2023-06-10T10:25:49;4.88;;;3.65;;
77287;SDS011;66345;42.694;23.346;2023-06-10T10:28:34;6.20;;;3.45;;
77287;SDS011;66345;42.694;23.346;2023-06-10T10:31:00;4.95;;;3.92;;
77287;SDS011;66345;42.694;23.346;2023-06-10T10:33:44;5.72;;;3.90;;
77287;SDS011;66345;42.694;23.346;2023-06-10T10:36:23;5.53;;;3.30;;
77287;SDS011;66345;42.694;23.346;2023-06-10T10:38:49;5.90;;;3.40;;
77287;SDS011;66345;42.694;23.346;2023-06-10T10:41:15;5.68;;;3.15;;
77287;SDS011;66345;42.694;23.346;2023-06-10T10:43:43;4.32;;;2.75;;
77287;SDS011;66345;42.694;23.346;2023-06-10T10:46:13;4.53;;;2.73;;
77287;SDS011;66345;42.694;23.346;2023-06-10T10:48:42;4.95;;;2.80;;
77287;SDS011;66345;42.694;23.346;2023-06-10T10:51:09;5.32;;;3.00;;
77287;SDS011;66345;42.694;23.346;2023-06-10T10:53:38;5.10;;;2.78;;
77287;SDS011;66345;42.694;23.346;2023-06-10T10:56:05;7.28;;;3.33;;
77287;SDS011;66345;42.694;23.346;2023-06-10T10:58:32;4.90;;;2.90;;
77287;SDS011;66345;42.694;23.346;2023-06-10T11:00:57;5.43;;;2.50;;
77287;SDS011;66345;42.694;23.346;2023-06-10T11:03:22;5.87;;;3.03;;
77287;SDS011;66345;42.694;23.346;2023-06-10T11:05:56;5.93;;;3.58;;
77287;SDS011;66345;42.694;23.346;2023-06-10T11:10:54;9.10;;;3.55;;
77287;SDS011;66345;42.694;23.346;2023-06-10T11:13:20;5.97;;;3.30;;
77287;SDS011;66345;42.694;23.346;2023-06-10T11:15:47;6.40;;;3.27;;
77287;SDS011;66345;42.694;23.346;2023-06-10T11:18:22;6.18;;;3.25;;
77287;SDS011;66345;42.694;23.346;2023-06-10T11:20:56;5.65;;;3.28;;
77287;SDS011;66345;42.694;23.346;2023-06-10T11:28:36;5.13;;;3.00;;
77287;SDS011;66345;42.694;23.346;2023-06-10T11:31:05;6.25;;;3.00;;
77287;SDS011;66345;42.694;23.346;2023-06-10T11:33:31;6.13;;;3.50;;
77287;SDS011;66345;42.694;23.346;2023-06-10T11:35:57;6.00;;;3.00;;
77287;SDS011;66345;42.694;23.346;2023-06-10T11:38:23;5.13;;;2.95;;
77287;SDS011;66345;42.694;23.346;2023-06-10T11:40:50;5.88;;;3.45;;
77287;SDS011;66345;42.694;23.346;2023-06-10T11:43:19;4.45;;;2.88;;
77287;SDS011;66345;42.694;23.346;2023-06-10T11:45:45;4.53;;;2.87;;
77287;SDS011;66345;42.694;23.346;2023-06-10T11:48:12;6.03;;;2.97;;
77287;SDS011;66345;42.694;23.346;2023-06-10T11:50:37;6.13;;;3.95;;
77287;SDS011;66345;42.694;23.346;2023-06-10T11:53:03;4.70;;;2.67;;
77287;SDS011;66345;42.694;23.346;2023-06-10T11:58:16;5.60;;;2.63;;
77287;SDS011;66345;42.694;23.346;2023-06-10T12:00:46;5.80;;;2.90;;
77287;SDS011;66345;42.694;23.346;2023-06-10T12:03:16;7.03;;;2.90;;
77287;SDS011;66345;42.694;23.346;2023-06-10T12:05:55;5.18;;;2.70;;
77287;SDS011;66345;42.694;23.346;2023-06-10T12:08:25;5.17;;;2.57;;
77287;SDS011;66345;42.694;23.346;2023-06-10T12:10:51;5.20;;;2.40;;
77287;SDS011;66345;42.694;23.346;2023-06-10T12:13:17;4.53;;;2.70;;
77287;SDS011;66345;42.694;23.346;2023-06-10T12:15:45;6.28;;;2.58;;
77287;SDS011;66345;42.694;23.346;2023-06-10T12:18:18;5.10;;;2.90;;
77287;SDS011;66345;42.694;23.346;2023-06-10T12:20:47;6.03;;;3.30;;
77287;SDS011;66345;42.694;23.346;2023-06-10T12:23:13;5.70;;;3.00;;
77287;SDS011;66345;42.694;23.346;2023-06-10T12:25:43;5.95;;;2.70;;
77287;SDS011;66345;42.694;23.346;2023-06-10T12:28:20;5.30;;;2.88;;
77287;SDS011;66345;42.694;23.346;2023-06-10T12:30:46;5.13;;;2.70;;
77287;SDS011;66345;42.694;23.346;2023-06-10T12:33:18;6.75;;;3.10;;
77287;SDS011;66345;42.694;23.346;2023-06-10T12:35:49;7.10;;;3.10;;
77287;SDS011;66345;42.694;23.346;2023-06-10T12:38:23;5.50;;;2.50;;
77287;SDS011;66345;42.694;23.346;2023-06-10T12:40:49;5.18;;;2.50;;
77287;SDS011;66345;42.694;23.346;2023-06-10T12:43:21;4.40;;;2.78;;
77287;SDS011;66345;42.694;23.346;2023-06-10T12:45:48;5.70;;;2.97;;
77287;SDS011;66345;42.694;23.346;2023-06-10T12:50:44;5.75;;;3.28;;
77287;SDS011;66345;42.694;23.346;2023-06-10T12:53:15;5.97;;;2.88;;
77287;SDS011;66345;42.694;23.346;2023-06-10T12:55:41;6.70;;;2.90;;
77287;SDS011;66345;42.694;23.346;2023-06-10T12:58:06;5.57;;;2.80;;
77287;SDS011;66345;42.694;23.346;2023-06-10T13:00:32;4.47;;;2.57;;
77287;SDS011;66345;42.694;23.346;2023-06-10T13:03:00;4.90;;;2.50;;
77287;SDS011;66345;42.694;23.346;2023-06-10T13:05:27;4.77;;;2.57;;
77287;SDS011;66345;42.694;23.346;2023-06-10T13:07:53;6.47;;;3.08;;
77287;SDS011;66345;42.694;23.346;2023-06-10T13:10:20;4.85;;;2.30;;
77287;SDS011;66345;42.694;23.346;2023-06-10T13:12:46;5.15;;;2.90;;
77287;SDS011;66345;42.694;23.346;2023-06-10T13:15:12;5.20;;;2.40;;
77287;SDS011;66345;42.694;23.346;2023-06-10T13:17:38;7.25;;;2.80;;
77287;SDS011;66345;42.694;23.346;2023-06-10T13:20:05;4.72;;;2.38;;
77287;SDS011;66345;42.694;23.346;2023-06-10T13:22:32;5.85;;;2.83;;
77287;SDS011;66345;42.694;23.346;2023-06-10T13:24:59;8.03;;;3.47;;
77287;SDS011;66345;42.694;23.346;2023-06-10T13:27:25;8.20;;;3.42;;
77287;SDS011;66345;42.694;23.346;2023-06-10T13:29:52;8.88;;;3.45;;
77287;SDS011;66345;42.694;23.346;2023-06-10T13:32:17;6.00;;;2.80;;
77287;SDS011;66345;42.694;23.346;2023-06-10T13:34:43;9.70;;;3.40;;
77287;SDS011;66345;42.694;23.346;2023-06-10T13:37:08;6.97;;;3.70;;
77287;SDS011;66345;42.694;23.346;2023-06-10T13:39:34;7.47;;;3.37;;
77287;SDS011;66345;42.694;23.346;2023-06-10T13:41:59;5.90;;;3.47;;
77287;SDS011;66345;42.694;23.346;2023-06-10T13:44:25;7.28;;;3.50;;
77287;SDS011;66345;42.694;23.346;2023-06-10T13:46:50;7.40;;;3.53;;
77287;SDS011;66345;42.694;23.346;2023-06-10T13:49:16;6.30;;;3.53;;
77287;SDS011;66345;42.694;23.346;2023-06-10T13:51:41;9.55;;;3.55;;
77287;SDS011;66345;42.694;23.346;2023-06-10T13:54:07;6.30;;;3.40;;
77287;SDS011;66345;42.694;23.346;2023-06-10T13:56:32;5.20;;;3.20;;
77287;SDS011;66345;42.694;23.346;2023-06-10T13:59:02;5.53;;;3.30;;
77287;SDS011;66345;42.694;23.346;2023-06-10T14:01:28;7.35;;;3.78;;
77287;SDS011;66345;42.694;23.346;2023-06-10T14:03:54;6.03;;;3.30;;
77287;SDS011;66345;42.694;23.346;2023-06-10T14:06:19;6.83;;;3.50;;
77287;SDS011;66345;42.694;23.346;2023-06-10T14:08:45;8.25;;;3.63;;
77287;SDS011;66345;42.694;23.346;2023-06-10T14:11:10;6.00;;;3.23;;
77287;SDS011;66345;42.694;23.346;2023-06-10T14:13:36;5.97;;;3.27;;
77287;SDS011;66345;42.694;23.346;2023-06-10T14:16:03;8.65;;;3.80;;
77287;SDS011;66345;42.694;23.346;2023-06-10T14:18:29;6.00;;;3.45;;
77287;SDS011;66345;42.694;23.346;2023-06-10T14:20:55;5.70;;;3.30;;
77287;SDS011;66345;42.694;23.346;2023-06-10T14:23:20;10.17;;;4.20;;
77287;SDS011;66345;42.694;23.346;2023-06-10T14:25:46;6.45;;;3.70;;
77287;SDS011;66345;42.694;23.346;2023-06-10T14:28:11;5.47;;;3.33;;
77287;SDS011;66345;42.694;23.346;2023-06-10T14:30:37;6.97;;;3.37;;
77287;SDS011;66345;42.694;23.346;2023-06-10T14:33:02;7.53;;;3.40;;
77287;SDS011;66345;42.694;23.346;2023-06-10T14:35:28;5.18;;;3.40;;
77287;SDS011;66345;42.694;23.346;2023-06-10T14:37:53;5.90;;;3.13;;
77287;SDS011;66345;42.694;23.346;2023-06-10T14:40:18;7.23;;;3.10;;
77287;SDS011;66345;42.694;23.346;2023-06-10T14:42:46;5.93;;;3.13;;
77287;SDS011;66345;42.694;23.346;2023-06-10T14:45:12;5.20;;;3.17;;
77287;SDS011;66345;42.694;23.346;2023-06-10T14:47:37;7.05;;;3.00;;